sensor_id;sensor_type;location;lat;lon;timestamp;noise_LAeq;noise_LA_min;noise_LA_max;noise_LA01;noise_LA95
46393;Laerm;32099;53.588;10.176;2023-04-16T00:01:54;35.25;32.74;43.21;;
46393;Laerm;32099;53.588;10.176;2023-04-16T00:04:20;35.48;32.57;45.56;;
46393;Laerm;32099;53.588;10.176;2023-04-16T00:06:45;35.72;33.23;44.83;;
46393;Laerm;32099;53.588;10.176;2023-04-16T00:09:10;35.34;32.27;41.59;;
46393;Laerm;32099;53.588;10.176;2023-04-16T00:11:35;36.20;32.38;43.43;;
46393;Laerm;32099;53.588;10.176;2023-04-16T00:14:01;47.73;33.16;69.66;;
46393;Laerm;32099;53.588;10.176;2023-04-16T00:16:26;36.02;33.03;43.52;;
46393;Laerm;32099;53.588;10.176;2023-04-16T00:18:52;36.56;33.83;56.18;;
46393;Laerm;32099;53.588;10.176;2023-04-16T00:21:17;47.41;33.18;68.12;;
46393;Laerm;32099;53.588;10.176;2023-04-16T00:23:42;47.74;33.16;68.53;;
46393;Laerm;32099;53.588;10.176;2023-04-16T00:26:08;36.72;33.32;46.21;;
46393;Laerm;32099;53.588;10.176;2023-04-16T00:28:33;35.52;32.43;44.87;;
46393;Laerm;32099;53.588;10.176;2023-04-16T00:31:00;35.61;32.91;41.99;;
46393;Laerm;32099;53.588;10.176;2023-04-16T00:33:25;35.18;32.62;44.01;;
46393;Laerm;32099;53.588;10.176;2023-04-16T00:35:50;35.17;32.78;40.20;;
46393;Laerm;32099;53.588;10.176;2023-04-16T00:38:16;35.18;32.38;40.57;;
46393;Laerm;32099;53.588;10.176;2023-04-16T00:40:41;48.79;32.49;70.71;;
46393;Laerm;32099;53.588;10.176;2023-04-16T00:43:06;36.03;32.48;46.77;;
46393;Laerm;32099;53.588;10.176;2023-04-16T00:45:32;35.28;32.67;45.66;;
46393;Laerm;32099;53.588;10.176;2023-04-16T00:47:58;46.95;32.85;67.46;;
46393;Laerm;32099;53.588;10.176;2023-04-16T00:50:23;34.66;32.59;38.77;;
46393;Laerm;32099;53.588;10.176;2023-04-16T00:52:48;35.05;32.91;41.58;;
46393;Laerm;32099;53.588;10.176;2023-04-16T00:55:15;35.31;32.25;43.60;;
46393;Laerm;32099;53.588;10.176;2023-04-16T00:57:42;34.89;32.11;42.53;;
46393;Laerm;32099;53.588;10.176;2023-04-16T01:00:08;36.52;32.92;61.31;;
46393;Laerm;32099;53.588;10.176;2023-04-16T01:02:34;35.80;32.79;44.30;;
46393;Laerm;32099;53.588;10.176;2023-04-16T01:05:00;34.45;32.33;38.50;;
46393;Laerm;32099;53.588;10.176;2023-04-16T01:07:26;36.53;32.85;47.17;;
46393;Laerm;32099;53.588;10.176;2023-04-16T01:09:51;35.17;32.80;51.08;;
46393;Laerm;32099;53.588;10.176;2023-04-16T01:12:16;35.09;32.82;43.18;;
46393;Laerm;32099;53.588;10.176;2023-04-16T01:14:42;35.40;33.03;39.97;;
46393;Laerm;32099;53.588;10.176;2023-04-16T01:17:07;35.79;33.20;45.14;;
46393;Laerm;32099;53.588;10.176;2023-04-16T01:19:32;34.95;32.68;39.96;;
46393;Laerm;32099;53.588;10.176;2023-04-16T01:22:00;36.63;33.01;46.44;;
46393;Laerm;32099;53.588;10.176;2023-04-16T01:24:25;35.75;32.15;46.53;;
46393;Laerm;32099;53.588;10.176;2023-04-16T01:26:51;35.16;32.40;46.51;;
46393;Laerm;32099;53.588;10.176;2023-04-16T01:29:16;34.83;32.59;46.91;;
46393;Laerm;32099;53.588;10.176;2023-04-16T01:31:41;35.99;32.73;57.42;;
46393;Laerm;32099;53.588;10.176;2023-04-16T01:34:07;35.05;32.10;51.43;;
46393;Laerm;32099;53.588;10.176;2023-04-16T01:36:32;34.37;32.13;47.11;;
46393;Laerm;32099;53.588;10.176;2023-04-16T01:38:57;35.41;32.35;50.18;;
46393;Laerm;32099;53.588;10.176;2023-04-16T01:41:23;34.86;32.36;52.03;;
46393;Laerm;32099;53.588;10.176;2023-04-16T01:43:48;35.13;31.98;46.06;;
46393;Laerm;32099;53.588;10.176;2023-04-16T01:46:17;34.03;32.02;41.43;;
46393;Laerm;32099;53.588;10.176;2023-04-16T01:48:44;35.00;32.81;38.87;;
46393;Laerm;32099;53.588;10.176;2023-04-16T01:51:09;35.77;32.91;47.37;;
46393;Laerm;32099;53.588;10.176;2023-04-16T01:53:35;51.52;32.65;73.65;;
46393;Laerm;32099;53.588;10.176;2023-04-16T01:56:00;34.30;32.24;37.97;;
46393;Laerm;32099;53.588;10.176;2023-04-16T01:58:30;36.10;32.45;51.82;;
46393;Laerm;32099;53.588;10.176;2023-04-16T02:00:56;35.85;32.34;45.64;;
46393;Laerm;32099;53.588;10.176;2023-04-16T02:03:21;34.80;32.22;42.58;;
46393;Laerm;32099;53.588;10.176;2023-04-16T02:05:49;35.33;32.66;39.51;;
46393;Laerm;32099;53.588;10.176;2023-04-16T02:08:14;36.47;33.28;46.63;;
46393;Laerm;32099;53.588;10.176;2023-04-16T02:10:40;35.00;32.51;38.99;;
46393;Laerm;32099;53.588;10.176;2023-04-16T02:13:05;34.41;32.15;38.50;;
46393;Laerm;32099;53.588;10.176;2023-04-16T02:15:30;34.05;31.92;58.33;;
46393;Laerm;32099;53.588;10.176;2023-04-16T02:17:55;34.78;32.35;41.19;;
46393;Laerm;32099;53.588;10.176;2023-04-16T02:20:21;35.10;32.19;44.91;;
46393;Laerm;32099;53.588;10.176;2023-04-16T02:22:46;35.29;32.49;44.04;;
46393;Laerm;32099;53.588;10.176;2023-04-16T02:25:12;34.62;32.19;43.48;;
46393;Laerm;32099;53.588;10.176;2023-04-16T02:27:38;36.11;32.75;46.51;;
46393;Laerm;32099;53.588;10.176;2023-04-16T02:30:03;51.83;31.99;74.67;;
46393;Laerm;32099;53.588;10.176;2023-04-16T02:32:29;33.51;31.80;36.64;;
46393;Laerm;32099;53.588;10.176;2023-04-16T02:34:54;38.21;32.37;48.18;;
46393;Laerm;32099;53.588;10.176;2023-04-16T02:37:21;36.65;32.30;52.26;;
46393;Laerm;32099;53.588;10.176;2023-04-16T02:39:46;35.57;32.16;47.38;;
46393;Laerm;32099;53.588;10.176;2023-04-16T02:42:13;34.69;32.20;46.36;;
46393;Laerm;32099;53.588;10.176;2023-04-16T02:44:39;36.05;32.51;59.69;;
46393;Laerm;32099;53.588;10.176;2023-04-16T02:47:05;39.71;32.42;66.28;;
46393;Laerm;32099;53.588;10.176;2023-04-16T02:49:30;49.06;32.54;67.51;;
46393;Laerm;32099;53.588;10.176;2023-04-16T02:51:55;52.63;32.19;71.90;;
46393;Laerm;32099;53.588;10.176;2023-04-16T02:54:21;39.72;31.97;54.88;;
46393;Laerm;32099;53.588;10.176;2023-04-16T02:56:46;39.45;32.09;52.30;;
46393;Laerm;32099;53.588;10.176;2023-04-16T02:59:11;40.86;31.84;58.75;;
46393;Laerm;32099;53.588;10.176;2023-04-16T03:01:36;39.62;32.64;50.80;;
46393;Laerm;32099;53.588;10.176;2023-04-16T03:04:02;50.87;32.09;69.49;;
46393;Laerm;32099;53.588;10.176;2023-04-16T03:06:27;52.53;32.39;71.15;;
46393;Laerm;32099;53.588;10.176;2023-04-16T03:08:52;52.21;33.27;68.65;;
46393;Laerm;32099;53.588;10.176;2023-04-16T03:11:18;50.97;32.70;68.24;;
46393;Laerm;32099;53.588;10.176;2023-04-16T03:13:44;53.13;33.32;70.15;;
46393;Laerm;32099;53.588;10.176;2023-04-16T03:16:10;53.24;33.26;70.52;;
46393;Laerm;32099;53.588;10.176;2023-04-16T03:18:35;54.96;32.77;72.93;;
46393;Laerm;32099;53.588;10.176;2023-04-16T03:21:01;54.37;34.00;70.01;;
46393;Laerm;32099;53.588;10.176;2023-04-16T03:23:26;51.97;33.08;68.21;;
46393;Laerm;32099;53.588;10.176;2023-04-16T03:25:52;54.73;33.95;71.01;;
46393;Laerm;32099;53.588;10.176;2023-04-16T03:28:17;56.79;34.68;69.56;;
46393;Laerm;32099;53.588;10.176;2023-04-16T03:30:49;58.34;33.94;73.19;;
46393;Laerm;32099;53.588;10.176;2023-04-16T03:33:15;57.34;34.92;71.47;;
46393;Laerm;32099;53.588;10.176;2023-04-16T03:35:40;55.02;35.78;70.08;;
46393;Laerm;32099;53.588;10.176;2023-04-16T03:38:05;56.14;35.53;70.28;;
46393;Laerm;32099;53.588;10.176;2023-04-16T03:40:30;56.47;35.71;70.99;;
46393;Laerm;32099;53.588;10.176;2023-04-16T03:42:56;56.40;35.56;70.72;;
46393;Laerm;32099;53.588;10.176;2023-04-16T03:45:21;56.13;35.83;70.28;;
46393;Laerm;32099;53.588;10.176;2023-04-16T03:47:46;55.38;35.71;71.15;;
46393;Laerm;32099;53.588;10.176;2023-04-16T03:50:17;55.34;36.28;69.62;;
46393;Laerm;32099;53.588;10.176;2023-04-16T03:52:42;56.10;34.94;73.35;;
46393;Laerm;32099;53.588;10.176;2023-04-16T03:55:08;56.22;34.38;73.36;;
46393;Laerm;32099;53.588;10.176;2023-04-16T03:57:34;57.49;35.11;73.61;;
46393;Laerm;32099;53.588;10.176;2023-04-16T03:59:59;56.38;34.60;74.26;;
46393;Laerm;32099;53.588;10.176;2023-04-16T04:02:24;51.96;33.81;71.36;;
46393;Laerm;32099;53.588;10.176;2023-04-16T04:04:50;45.82;33.92;63.38;;
46393;Laerm;32099;53.588;10.176;2023-04-16T04:07:15;40.81;32.79;56.66;;
46393;Laerm;32099;53.588;10.176;2023-04-16T04:09:40;42.83;32.87;52.55;;
46393;Laerm;32099;53.588;10.176;2023-04-16T04:12:06;40.81;34.16;52.41;;
46393;Laerm;32099;53.588;10.176;2023-04-16T04:14:31;42.71;33.48;59.09;;
46393;Laerm;32099;53.588;10.176;2023-04-16T04:16:56;45.59;33.32;60.43;;
46393;Laerm;32099;53.588;10.176;2023-04-16T04:19:22;54.06;33.59;71.98;;
46393;Laerm;32099;53.588;10.176;2023-04-16T04:21:47;52.65;33.55;71.50;;
46393;Laerm;32099;53.588;10.176;2023-04-16T04:24:12;51.80;33.45;71.95;;
46393;Laerm;32099;53.588;10.176;2023-04-16T04:26:37;53.53;33.52;70.67;;
46393;Laerm;32099;53.588;10.176;2023-04-16T04:29:03;53.98;33.42;72.15;;
46393;Laerm;32099;53.588;10.176;2023-04-16T04:31:28;52.84;33.63;68.75;;
46393;Laerm;32099;53.588;10.176;2023-04-16T04:33:53;57.90;34.19;75.18;;
46393;Laerm;32099;53.588;10.176;2023-04-16T04:36:19;55.02;34.39;74.43;;
46393;Laerm;32099;53.588;10.176;2023-04-16T04:38:45;52.12;33.67;71.42;;
46393;Laerm;32099;53.588;10.176;2023-04-16T04:41:10;45.85;33.31;58.80;;
46393;Laerm;32099;53.588;10.176;2023-04-16T04:43:35;42.86;32.78;58.48;;
46393;Laerm;32099;53.588;10.176;2023-04-16T04:46:01;43.58;34.22;61.86;;
46393;Laerm;32099;53.588;10.176;2023-04-16T04:48:26;44.84;33.49;63.19;;
46393;Laerm;32099;53.588;10.176;2023-04-16T04:50:53;41.28;33.20;54.48;;
46393;Laerm;32099;53.588;10.176;2023-04-16T04:53:18;50.06;32.95;72.20;;
46393;Laerm;32099;53.588;10.176;2023-04-16T04:55:44;45.42;33.14;62.99;;
46393;Laerm;32099;53.588;10.176;2023-04-16T04:58:09;51.29;33.37;71.09;;
46393;Laerm;32099;53.588;10.176;2023-04-16T05:00:34;51.24;33.24;69.23;;
46393;Laerm;32099;53.588;10.176;2023-04-16T05:03:02;48.15;32.44;69.37;;
46393;Laerm;32099;53.588;10.176;2023-04-16T05:05:27;54.96;32.89;72.11;;
46393;Laerm;32099;53.588;10.176;2023-04-16T05:07:53;51.99;34.58;71.29;;
46393;Laerm;32099;53.588;10.176;2023-04-16T05:10:18;44.76;33.17;57.77;;
46393;Laerm;32099;53.588;10.176;2023-04-16T05:12:45;48.11;33.29;66.60;;
46393;Laerm;32099;53.588;10.176;2023-04-16T05:15:10;50.56;33.07;67.97;;
46393;Laerm;32099;53.588;10.176;2023-04-16T05:17:36;48.88;33.40;66.19;;
46393;Laerm;32099;53.588;10.176;2023-04-16T05:20:01;50.46;34.05;67.03;;
46393;Laerm;32099;53.588;10.176;2023-04-16T05:22:26;50.34;32.89;67.65;;
46393;Laerm;32099;53.588;10.176;2023-04-16T05:24:51;50.06;33.18;71.48;;
46393;Laerm;32099;53.588;10.176;2023-04-16T05:27:17;48.80;33.24;65.24;;
46393;Laerm;32099;53.588;10.176;2023-04-16T05:29:42;47.85;32.74;63.74;;
46393;Laerm;32099;53.588;10.176;2023-04-16T05:32:07;46.92;33.20;63.56;;
46393;Laerm;32099;53.588;10.176;2023-04-16T05:34:33;49.95;33.68;73.57;;
46393;Laerm;32099;53.588;10.176;2023-04-16T05:36:58;53.95;32.77;71.78;;
46393;Laerm;32099;53.588;10.176;2023-04-16T05:39:23;39.82;33.31;53.02;;
46393;Laerm;32099;53.588;10.176;2023-04-16T05:41:48;39.63;33.84;56.90;;
46393;Laerm;32099;53.588;10.176;2023-04-16T05:44:14;43.20;33.14;58.50;;
46393;Laerm;32099;53.588;10.176;2023-04-16T05:46:39;40.90;33.05;54.10;;
46393;Laerm;32099;53.588;10.176;2023-04-16T05:49:05;53.84;32.88;69.45;;
46393;Laerm;32099;53.588;10.176;2023-04-16T05:51:30;50.30;33.68;66.66;;
46393;Laerm;32099;53.588;10.176;2023-04-16T05:53:56;42.86;32.94;60.56;;
46393;Laerm;32099;53.588;10.176;2023-04-16T05:56:21;42.16;33.03;61.10;;
46393;Laerm;32099;53.588;10.176;2023-04-16T05:58:47;37.32;32.50;52.30;;
46393;Laerm;32099;53.588;10.176;2023-04-16T06:01:12;48.73;32.97;62.87;;
46393;Laerm;32099;53.588;10.176;2023-04-16T06:03:38;39.56;32.71;56.82;;
46393;Laerm;32099;53.588;10.176;2023-04-16T06:06:03;49.84;33.01;71.91;;
46393;Laerm;32099;53.588;10.176;2023-04-16T06:08:28;56.33;33.04;75.19;;
46393;Laerm;32099;53.588;10.176;2023-04-16T06:10:53;55.94;33.37;78.56;;
46393;Laerm;32099;53.588;10.176;2023-04-16T06:13:19;54.80;33.76;73.19;;
46393;Laerm;32099;53.588;10.176;2023-04-16T06:15:44;51.30;33.28;68.69;;
46393;Laerm;32099;53.588;10.176;2023-04-16T06:18:09;50.19;34.41;66.26;;
46393;Laerm;32099;53.588;10.176;2023-04-16T06:20:35;50.93;34.89;67.31;;
46393;Laerm;32099;53.588;10.176;2023-04-16T06:23:01;51.41;34.92;68.77;;
46393;Laerm;32099;53.588;10.176;2023-04-16T06:25:26;51.96;33.94;68.73;;
46393;Laerm;32099;53.588;10.176;2023-04-16T06:27:51;53.68;34.39;72.43;;
46393;Laerm;32099;53.588;10.176;2023-04-16T06:30:18;56.49;34.50;72.97;;
46393;Laerm;32099;53.588;10.176;2023-04-16T06:32:44;53.64;33.08;70.25;;
46393;Laerm;32099;53.588;10.176;2023-04-16T06:35:10;47.55;33.15;69.52;;
46393;Laerm;32099;53.588;10.176;2023-04-16T06:37:35;47.35;33.68;72.47;;
46393;Laerm;32099;53.588;10.176;2023-04-16T06:40:01;48.65;34.24;70.64;;
46393;Laerm;32099;53.588;10.176;2023-04-16T06:42:26;39.35;32.87;62.80;;
46393;Laerm;32099;53.588;10.176;2023-04-16T06:44:51;41.04;33.92;55.52;;
46393;Laerm;32099;53.588;10.176;2023-04-16T06:47:17;49.35;34.22;69.87;;
46393;Laerm;32099;53.588;10.176;2023-04-16T06:49:42;45.74;33.87;60.25;;
46393;Laerm;32099;53.588;10.176;2023-04-16T06:52:07;41.46;33.77;55.76;;
46393;Laerm;32099;53.588;10.176;2023-04-16T06:54:32;45.30;33.90;65.21;;
46393;Laerm;32099;53.588;10.176;2023-04-16T06:56:58;41.21;33.77;53.76;;
46393;Laerm;32099;53.588;10.176;2023-04-16T06:59:23;47.11;35.17;65.26;;
46393;Laerm;32099;53.588;10.176;2023-04-16T07:01:48;41.68;34.10;60.76;;
46393;Laerm;32099;53.588;10.176;2023-04-16T07:04:14;49.42;33.85;71.80;;
46393;Laerm;32099;53.588;10.176;2023-04-16T07:06:39;50.60;34.21;70.64;;
46393;Laerm;32099;53.588;10.176;2023-04-16T07:09:04;44.09;33.34;57.66;;
46393;Laerm;32099;53.588;10.176;2023-04-16T07:11:30;44.08;33.34;63.02;;
46393;Laerm;32099;53.588;10.176;2023-04-16T07:13:55;48.36;32.99;69.76;;
46393;Laerm;32099;53.588;10.176;2023-04-16T07:16:21;49.76;33.20;68.11;;
46393;Laerm;32099;53.588;10.176;2023-04-16T07:18:47;52.34;33.68;70.54;;
46393;Laerm;32099;53.588;10.176;2023-04-16T07:21:12;49.21;33.85;70.09;;
46393;Laerm;32099;53.588;10.176;2023-04-16T07:23:37;50.21;34.71;70.38;;
46393;Laerm;32099;53.588;10.176;2023-04-16T07:26:02;52.74;33.70;71.25;;
46393;Laerm;32099;53.588;10.176;2023-04-16T07:28:28;44.88;33.28;64.54;;
46393;Laerm;32099;53.588;10.176;2023-04-16T07:30:53;38.20;33.62;50.51;;
46393;Laerm;32099;53.588;10.176;2023-04-16T07:33:18;54.50;33.42;72.67;;
46393;Laerm;32099;53.588;10.176;2023-04-16T07:35:44;47.90;34.55;69.76;;
46393;Laerm;32099;53.588;10.176;2023-04-16T07:38:09;53.72;35.09;71.55;;
46393;Laerm;32099;53.588;10.176;2023-04-16T07:40:35;49.48;34.54;71.50;;
46393;Laerm;32099;53.588;10.176;2023-04-16T07:43:00;44.02;34.47;59.98;;
46393;Laerm;32099;53.588;10.176;2023-04-16T07:45:26;53.34;34.13;74.61;;
46393;Laerm;32099;53.588;10.176;2023-04-16T07:47:51;53.17;34.56;75.88;;
46393;Laerm;32099;53.588;10.176;2023-04-16T07:50:16;49.70;34.63;68.04;;
46393;Laerm;32099;53.588;10.176;2023-04-16T07:52:43;42.93;33.75;60.62;;
46393;Laerm;32099;53.588;10.176;2023-04-16T07:55:09;45.41;34.92;58.70;;
46393;Laerm;32099;53.588;10.176;2023-04-16T07:57:35;54.78;35.12;75.75;;
46393;Laerm;32099;53.588;10.176;2023-04-16T08:00:00;54.27;34.26;74.53;;
46393;Laerm;32099;53.588;10.176;2023-04-16T08:02:26;55.93;34.93;70.67;;
46393;Laerm;32099;53.588;10.176;2023-04-16T08:04:51;51.19;35.60;69.25;;
46393;Laerm;32099;53.588;10.176;2023-04-16T08:07:17;52.89;34.65;73.27;;
46393;Laerm;32099;53.588;10.176;2023-04-16T08:09:50;48.87;33.94;67.41;;
46393;Laerm;32099;53.588;10.176;2023-04-16T08:12:16;45.96;33.99;60.29;;
46393;Laerm;32099;53.588;10.176;2023-04-16T08:14:42;44.49;34.05;60.04;;
46393;Laerm;32099;53.588;10.176;2023-04-16T08:17:08;51.52;35.79;70.88;;
46393;Laerm;32099;53.588;10.176;2023-04-16T08:19:33;56.07;35.64;73.10;;
46393;Laerm;32099;53.588;10.176;2023-04-16T08:21:58;55.28;35.65;71.39;;
46393;Laerm;32099;53.588;10.176;2023-04-16T08:24:23;55.36;36.57;71.50;;
46393;Laerm;32099;53.588;10.176;2023-04-16T08:26:49;54.24;35.19;73.53;;
46393;Laerm;32099;53.588;10.176;2023-04-16T08:29:14;52.97;35.63;73.87;;
46393;Laerm;32099;53.588;10.176;2023-04-16T08:31:40;52.55;34.62;70.47;;
46393;Laerm;32099;53.588;10.176;2023-04-16T08:34:05;54.57;36.78;69.06;;
46393;Laerm;32099;53.588;10.176;2023-04-16T08:36:30;53.84;35.38;70.79;;
46393;Laerm;32099;53.588;10.176;2023-04-16T08:38:56;42.62;34.46;56.83;;
46393;Laerm;32099;53.588;10.176;2023-04-16T08:41:22;48.58;34.58;69.70;;
46393;Laerm;32099;53.588;10.176;2023-04-16T08:43:49;40.99;34.99;53.47;;
46393;Laerm;32099;53.588;10.176;2023-04-16T08:46:16;51.70;35.03;71.03;;
46393;Laerm;32099;53.588;10.176;2023-04-16T08:48:46;41.06;34.65;64.85;;
46393;Laerm;32099;53.588;10.176;2023-04-16T08:51:13;39.91;34.53;55.15;;
46393;Laerm;32099;53.588;10.176;2023-04-16T08:53:48;47.88;34.53;67.39;;
46393;Laerm;32099;53.588;10.176;2023-04-16T08:56:19;51.25;34.85;71.82;;
46393;Laerm;32099;53.588;10.176;2023-04-16T08:58:46;54.84;35.43;72.54;;
46393;Laerm;32099;53.588;10.176;2023-04-16T09:01:13;54.90;34.97;73.37;;
46393;Laerm;32099;53.588;10.176;2023-04-16T09:03:39;53.25;34.46;72.89;;
46393;Laerm;32099;53.588;10.176;2023-04-16T09:06:06;50.32;35.15;69.48;;
46393;Laerm;32099;53.588;10.176;2023-04-16T09:08:31;53.19;35.46;71.97;;
46393;Laerm;32099;53.588;10.176;2023-04-16T09:10:58;44.65;34.95;70.32;;
46393;Laerm;32099;53.588;10.176;2023-04-16T09:13:24;53.77;34.43;70.94;;
46393;Laerm;32099;53.588;10.176;2023-04-16T09:15:52;48.38;34.86;69.33;;
46393;Laerm;32099;53.588;10.176;2023-04-16T09:18:18;59.13;35.52;78.10;;
46393;Laerm;32099;53.588;10.176;2023-04-16T09:20:45;53.20;35.47;69.88;;
46393;Laerm;32099;53.588;10.176;2023-04-16T09:23:11;42.44;34.38;60.21;;
46393;Laerm;32099;53.588;10.176;2023-04-16T09:25:36;48.46;34.25;67.33;;
46393;Laerm;32099;53.588;10.176;2023-04-16T09:28:02;51.71;34.60;70.06;;
46393;Laerm;32099;53.588;10.176;2023-04-16T09:30:28;52.35;34.43;72.51;;
46393;Laerm;32099;53.588;10.176;2023-04-16T09:33:15;54.65;34.52;72.20;;
46393;Laerm;32099;53.588;10.176;2023-04-16T09:35:46;55.05;35.89;75.16;;
46393;Laerm;32099;53.588;10.176;2023-04-16T09:38:11;49.45;35.08;64.02;;
46393;Laerm;32099;53.588;10.176;2023-04-16T09:40:37;61.49;36.16;80.94;;
46393;Laerm;32099;53.588;10.176;2023-04-16T09:43:10;45.79;35.52;62.27;;
46393;Laerm;32099;53.588;10.176;2023-04-16T09:45:47;48.83;35.74;70.22;;
46393;Laerm;32099;53.588;10.176;2023-04-16T09:48:12;60.11;35.32;79.06;;
46393;Laerm;32099;53.588;10.176;2023-04-16T09:50:38;47.70;35.78;71.23;;
46393;Laerm;32099;53.588;10.176;2023-04-16T09:53:03;48.12;34.33;69.45;;
46393;Laerm;32099;53.588;10.176;2023-04-16T09:55:28;51.22;34.45;71.81;;
46393;Laerm;32099;53.588;10.176;2023-04-16T09:57:58;52.15;34.94;69.18;;
46393;Laerm;32099;53.588;10.176;2023-04-16T10:00:23;50.47;35.03;69.04;;
46393;Laerm;32099;53.588;10.176;2023-04-16T10:02:49;57.71;35.65;75.71;;
46393;Laerm;32099;53.588;10.176;2023-04-16T10:05:14;60.39;35.60;78.45;;
46393;Laerm;32099;53.588;10.176;2023-04-16T10:07:42;59.80;35.55;76.49;;
46393;Laerm;32099;53.588;10.176;2023-04-16T10:10:08;57.68;35.22;77.86;;
46393;Laerm;32099;53.588;10.176;2023-04-16T10:12:34;52.68;35.37;72.29;;
46393;Laerm;32099;53.588;10.176;2023-04-16T10:14:59;55.05;35.50;72.80;;
46393;Laerm;32099;53.588;10.176;2023-04-16T10:17:25;55.93;34.63;75.13;;
46393;Laerm;32099;53.588;10.176;2023-04-16T10:19:54;48.93;35.96;66.42;;
46393;Laerm;32099;53.588;10.176;2023-04-16T10:22:20;44.72;35.61;62.74;;
46393;Laerm;32099;53.588;10.176;2023-04-16T10:24:45;50.92;35.42;75.11;;
46393;Laerm;32099;53.588;10.176;2023-04-16T10:27:11;50.83;35.29;69.95;;
46393;Laerm;32099;53.588;10.176;2023-04-16T10:29:37;49.83;35.44;71.63;;
46393;Laerm;32099;53.588;10.176;2023-04-16T10:32:04;46.27;34.74;65.78;;
46393;Laerm;32099;53.588;10.176;2023-04-16T10:34:30;54.26;35.05;75.57;;
46393;Laerm;32099;53.588;10.176;2023-04-16T10:36:56;42.44;34.74;56.49;;
46393;Laerm;32099;53.588;10.176;2023-04-16T10:39:23;49.37;34.31;69.84;;
46393;Laerm;32099;53.588;10.176;2023-04-16T10:41:49;43.06;35.53;56.33;;
46393;Laerm;32099;53.588;10.176;2023-04-16T10:44:18;56.45;35.74;74.76;;
46393;Laerm;32099;53.588;10.176;2023-04-16T10:46:46;59.49;35.71;77.62;;
46393;Laerm;32099;53.588;10.176;2023-04-16T10:49:23;57.50;34.91;77.16;;
46393;Laerm;32099;53.588;10.176;2023-04-16T10:54:27;53.09;35.29;72.51;;
46393;Laerm;32099;53.588;10.176;2023-04-16T10:56:55;48.44;35.31;69.07;;
46393;Laerm;32099;53.588;10.176;2023-04-16T10:59:22;50.10;34.81;71.01;;
46393;Laerm;32099;53.588;10.176;2023-04-16T11:01:53;39.39;34.40;51.18;;
46393;Laerm;32099;53.588;10.176;2023-04-16T11:07:06;58.11;34.80;78.03;;
46393;Laerm;32099;53.588;10.176;2023-04-16T11:12:15;46.26;34.67;62.90;;
46393;Laerm;32099;53.588;10.176;2023-04-16T11:14:46;52.16;34.92;70.92;;
46393;Laerm;32099;53.588;10.176;2023-04-16T11:17:12;47.63;35.41;67.49;;
46393;Laerm;32099;53.588;10.176;2023-04-16T11:19:37;56.24;34.77;76.10;;
46393;Laerm;32099;53.588;10.176;2023-04-16T11:22:03;56.59;35.14;75.07;;
46393;Laerm;32099;53.588;10.176;2023-04-16T11:24:32;53.90;36.00;74.06;;
46393;Laerm;32099;53.588;10.176;2023-04-16T11:26:57;52.89;35.17;70.58;;
46393;Laerm;32099;53.588;10.176;2023-04-16T11:29:23;51.38;35.27;72.96;;
46393;Laerm;32099;53.588;10.176;2023-04-16T11:31:52;44.00;34.52;58.12;;
46393;Laerm;32099;53.588;10.176;2023-04-16T11:34:18;59.01;35.47;78.20;;
46393;Laerm;32099;53.588;10.176;2023-04-16T11:36:48;50.91;35.71;69.95;;
46393;Laerm;32099;53.588;10.176;2023-04-16T11:39:13;50.06;36.59;66.75;;
46393;Laerm;32099;53.588;10.176;2023-04-16T11:41:47;47.91;35.11;64.92;;
46393;Laerm;32099;53.588;10.176;2023-04-16T11:44:21;50.09;35.45;69.37;;
46393;Laerm;32099;53.588;10.176;2023-04-16T11:46:47;53.66;35.58;73.82;;
46393;Laerm;32099;53.588;10.176;2023-04-16T11:49:13;53.50;34.88;74.81;;
46393;Laerm;32099;53.588;10.176;2023-04-16T11:51:39;50.36;35.75;72.14;;
46393;Laerm;32099;53.588;10.176;2023-04-16T11:54:05;49.87;35.51;70.24;;
46393;Laerm;32099;53.588;10.176;2023-04-16T11:56:33;54.21;35.56;77.04;;
46393;Laerm;32099;53.588;10.176;2023-04-16T11:59:21;59.03;35.67;76.17;;
46393;Laerm;32099;53.588;10.176;2023-04-16T12:01:56;55.12;35.64;78.67;;
46393;Laerm;32099;53.588;10.176;2023-04-16T12:04:23;50.42;36.38;73.02;;
46393;Laerm;32099;53.588;10.176;2023-04-16T12:09:31;47.92;35.19;66.01;;
46393;Laerm;32099;53.588;10.176;2023-04-16T12:11:56;47.34;34.25;63.82;;
46393;Laerm;32099;53.588;10.176;2023-04-16T12:14:22;52.68;35.71;74.51;;
46393;Laerm;32099;53.588;10.176;2023-04-16T12:16:47;49.50;35.09;70.16;;
46393;Laerm;32099;53.588;10.176;2023-04-16T12:19:13;46.66;34.44;64.41;;
46393;Laerm;32099;53.588;10.176;2023-04-16T12:21:40;41.28;34.07;55.29;;
46393;Laerm;32099;53.588;10.176;2023-04-16T12:24:07;47.40;35.03;69.27;;
46393;Laerm;32099;53.588;10.176;2023-04-16T12:26:43;51.57;34.92;72.69;;
46393;Laerm;32099;53.588;10.176;2023-04-16T12:29:23;56.33;35.86;76.02;;
46393;Laerm;32099;53.588;10.176;2023-04-16T12:31:50;55.73;34.60;74.79;;
46393;Laerm;32099;53.588;10.176;2023-04-16T12:34:16;52.31;33.96;71.21;;
46393;Laerm;32099;53.588;10.176;2023-04-16T12:36:43;57.57;35.03;74.27;;
46393;Laerm;32099;53.588;10.176;2023-04-16T12:39:10;45.45;35.14;61.65;;
46393;Laerm;32099;53.588;10.176;2023-04-16T12:41:37;51.71;35.44;71.04;;
46393;Laerm;32099;53.588;10.176;2023-04-16T12:44:04;53.73;35.47;75.61;;
46393;Laerm;32099;53.588;10.176;2023-04-16T12:46:31;48.95;35.01;69.87;;
46393;Laerm;32099;53.588;10.176;2023-04-16T12:48:56;48.53;34.08;66.03;;
46393;Laerm;32099;53.588;10.176;2023-04-16T12:51:22;53.37;35.41;69.80;;
46393;Laerm;32099;53.588;10.176;2023-04-16T12:53:48;48.98;34.71;66.01;;
46393;Laerm;32099;53.588;10.176;2023-04-16T12:56:13;51.34;35.25;65.43;;
46393;Laerm;32099;53.588;10.176;2023-04-16T12:58:39;55.51;35.52;71.03;;
46393;Laerm;32099;53.588;10.176;2023-04-16T13:01:04;51.16;35.08;66.92;;
46393;Laerm;32099;53.588;10.176;2023-04-16T13:03:29;54.52;34.19;77.16;;
46393;Laerm;32099;53.588;10.176;2023-04-16T13:05:55;54.59;35.51;69.40;;
46393;Laerm;32099;53.588;10.176;2023-04-16T13:08:21;53.50;35.37;72.80;;
46393;Laerm;32099;53.588;10.176;2023-04-16T13:10:46;49.39;35.71;68.26;;
46393;Laerm;32099;53.588;10.176;2023-04-16T13:13:11;50.81;35.67;67.14;;
46393;Laerm;32099;53.588;10.176;2023-04-16T13:15:36;43.95;35.29;67.65;;
46393;Laerm;32099;53.588;10.176;2023-04-16T13:18:02;45.07;34.64;62.28;;
46393;Laerm;32099;53.588;10.176;2023-04-16T13:20:27;52.08;35.26;69.65;;
46393;Laerm;32099;53.588;10.176;2023-04-16T13:22:52;54.25;35.23;71.03;;
46393;Laerm;32099;53.588;10.176;2023-04-16T13:25:18;53.29;35.49;68.59;;
46393;Laerm;32099;53.588;10.176;2023-04-16T13:27:43;50.85;35.03;67.06;;
46393;Laerm;32099;53.588;10.176;2023-04-16T13:30:08;50.93;34.89;72.16;;
46393;Laerm;32099;53.588;10.176;2023-04-16T13:32:34;48.16;34.24;68.40;;
46393;Laerm;32099;53.588;10.176;2023-04-16T13:34:59;47.51;33.95;67.02;;
46393;Laerm;32099;53.588;10.176;2023-04-16T13:37:24;53.60;35.04;74.02;;